Time;durP1;ratioP1;P1;durP2;ratioP2;P2;SDS_P1;SDS_P2;PMS_P1;PMS_P2;Temp;Humidity;BMP_temperature;BMP_pressure;BME280_temperature;BME280_humidity;BME280_pressure;Samples;Min_cycle;Max_cycle;Signal;HPM_P1;HPM_P2
2022/05/05 00:00:29;;;;;;;7.65;5.15;;;16.10;54.10;;;;;;5050508;28;20037;-48
2022/05/05 00:02:57;;;;;;;7.22;4.75;;;16.20;54.30;;;;;;5050408;28;20068;-50
2022/05/05 00:05:24;;;;;;;7.63;4.90;;;16.20;54.20;;;;;;5048869;28;20095;-51
2022/05/05 00:07:53;;;;;;;9.10;5.43;;;16.20;54.30;;;;;;5047052;28;20053;-47
2022/05/05 00:15:57;;;;;;;9.80;5.90;;;16.30;54.40;;;;;;5009790;28;20556;-49
2022/05/05 00:18:27;;;;;;;7.70;5.45;;;16.20;54.30;;;;;;5010350;28;20049;-47
2022/05/05 00:20:53;;;;;;;9.52;5.20;;;16.30;54.40;;;;;;5021918;28;20037;-48
2022/05/05 00:23:20;;;;;;;9.20;5.35;;;16.30;54.40;;;;;;5033778;28;20152;-47
2022/05/05 00:25:47;;;;;;;6.97;4.97;;;16.30;54.50;;;;;;5022843;28;20038;-52
2022/05/05 00:28:13;;;;;;;7.72;5.35;;;16.30;54.40;;;;;;5023347;28;20575;-51
2022/05/05 00:30:40;;;;;;;8.00;5.25;;;16.20;54.40;;;;;;5035500;28;20045;-50
2022/05/05 00:33:07;;;;;;;8.70;5.88;;;16.20;54.50;;;;;;5029723;28;20056;-47
2022/05/05 00:35:34;;;;;;;13.95;5.45;;;16.20;54.50;;;;;;5026615;28;20486;-51
2022/05/05 00:38:03;;;;;;;11.57;5.55;;;16.20;54.60;;;;;;5036212;28;20102;-47
2022/05/05 00:40:31;;;;;;;8.55;5.32;;;16.20;54.70;;;;;;5031672;28;20100;-50
2022/05/05 00:43:00;;;;;;;8.52;5.25;;;16.20;54.80;;;;;;5023844;28;20033;-50
2022/05/05 00:45:32;;;;;;;9.88;5.53;;;16.10;54.70;;;;;;5024045;28;20033;-48
2022/05/05 00:48:07;;;;;;;9.40;5.68;;;16.20;54.60;;;;;;5036443;28;20048;-51
2022/05/05 00:50:36;;;;;;;7.53;5.40;;;16.10;55.30;;;;;;5027437;28;20076;-51
2022/05/05 00:53:04;;;;;;;9.70;6.30;;;16.10;55.00;;;;;;5029572;28;20049;-51
2022/05/05 00:55:33;;;;;;;11.77;5.53;;;16.10;55.20;;;;;;5032225;28;20159;-51
2022/05/05 00:58:04;;;;;;;9.25;5.95;;;16.10;55.30;;;;;;5031646;28;20048;-51
2022/05/05 01:00:36;;;;;;;11.60;6.35;;;16.10;55.10;;;;;;5029979;28;20041;-51
2022/05/05 01:03:02;;;;;;;8.60;5.95;;;16.10;54.90;;;;;;5027367;28;20552;-51
2022/05/05 01:05:32;;;;;;;8.45;6.13;;;16.10;54.90;;;;;;5030928;28;20068;-51
2022/05/05 01:08:01;;;;;;;8.43;5.90;;;16.10;55.10;;;;;;5030113;28;20076;-51
2022/05/05 01:10:28;;;;;;;8.43;6.03;;;16.10;55.20;;;;;;5028631;28;20099;-49
2022/05/05 01:13:01;;;;;;;12.20;7.07;;;16.10;55.30;;;;;;5026901;28;20069;-47
2022/05/05 01:15:32;;;;;;;9.32;5.90;;;16.10;55.20;;;;;;5033988;28;20069;-49
2022/05/05 01:18:03;;;;;;;10.85;6.70;;;16.10;55.70;;;;;;5029148;28;20202;-51
2022/05/05 01:20:31;;;;;;;9.32;6.47;;;16.10;54.90;;;;;;5028044;28;20096;-51
2022/05/05 01:22:58;;;;;;;10.23;6.50;;;16.00;55.00;;;;;;5024497;28;20054;-51
2022/05/05 01:28:13;;;;;;;8.52;6.10;;;16.00;55.10;;;;;;5028630;28;20045;-51
2022/05/05 01:30:46;;;;;;;7.45;5.93;;;16.00;55.70;;;;;;5030380;28;20583;-49
2022/05/05 01:33:23;;;;;;;7.82;5.82;;;16.00;55.40;;;;;;5032089;28;20049;-52
2022/05/05 01:35:54;;;;;;;9.25;6.32;;;15.90;55.30;;;;;;5027237;28;20041;-51
2022/05/05 01:38:23;;;;;;;7.95;5.85;;;15.90;55.50;;;;;;5029083;28;20477;-51
2022/05/05 01:40:50;;;;;;;8.65;5.75;;;15.90;55.10;;;;;;5025994;28;20037;-50
2022/05/05 01:43:21;;;;;;;7.22;5.35;;;15.90;55.30;;;;;;5029325;28;20481;-49
2022/05/05 01:45:49;;;;;;;7.40;6.20;;;15.90;55.40;;;;;;5033011;28;20034;-51
2022/05/05 01:48:16;;;;;;;8.52;5.45;;;15.80;55.30;;;;;;5027283;28;20057;-51
2022/05/05 01:50:48;;;;;;;8.25;6.07;;;15.80;55.30;;;;;;5028995;28;20049;-50
2022/05/05 01:53:15;;;;;;;6.78;5.18;;;15.80;55.60;;;;;;5029604;28;20048;-51
2022/05/05 01:55:42;;;;;;;8.15;5.78;;;15.80;55.60;;;;;;5027644;28;20038;-51
2022/05/05 01:58:12;;;;;;;7.18;5.15;;;15.80;55.80;;;;;;5027632;28;20040;-51
2022/05/05 02:00:39;;;;;;;8.38;5.68;;;15.70;55.60;;;;;;5022145;28;20708;-49
2022/05/05 02:03:12;;;;;;;9.00;5.90;;;15.70;55.60;;;;;;5035797;28;20041;-50
2022/05/05 02:05:44;;;;;;;7.30;5.47;;;15.70;55.80;;;;;;5006856;28;20493;-51
2022/05/05 02:08:13;;;;;;;8.05;5.47;;;15.70;56.20;;;;;;5009102;28;20566;-51
2022/05/05 02:10:42;;;;;;;10.30;6.20;;;15.70;55.60;;;;;;5026749;28;20042;-52
2022/05/05 02:13:13;;;;;;;7.65;5.35;;;15.60;55.40;;;;;;5036153;28;20069;-50
2022/05/05 02:15:39;;;;;;;7.05;5.75;;;15.60;55.40;;;;;;5027183;28;20049;-51
2022/05/05 02:18:10;;;;;;;8.35;5.05;;;15.60;55.40;;;;;;5021728;28;20414;-47
2022/05/05 02:20:40;;;;;;;5.68;4.65;;;15.50;55.30;;;;;;5025250;28;20040;-47
2022/05/05 02:23:08;;;;;;;10.50;5.85;;;15.40;55.10;;;;;;5032895;28;20033;-52
2022/05/05 02:25:38;;;;;;;7.18;5.72;;;15.40;55.30;;;;;;5012427;28;20414;-50
2022/05/05 02:28:06;;;;;;;7.72;4.78;;;15.30;55.20;;;;;;5026746;28;20053;-47
2022/05/05 02:30:38;;;;;;;8.38;5.13;;;15.30;55.30;;;;;;5034926;28;20045;-49
2022/05/05 02:33:07;;;;;;;6.43;5.50;;;15.20;55.30;;;;;;5027523;28;20049;-51
2022/05/05 02:35:33;;;;;;;7.55;5.63;;;15.10;55.30;;;;;;5012387;28;20045;-49
2022/05/05 02:40:49;;;;;;;7.82;5.32;;;15.00;55.50;;;;;;5040661;28;20092;-48
2022/05/05 02:43:16;;;;;;;9.13;5.60;;;15.00;55.50;;;;;;5032402;28;20042;-51
2022/05/05 02:45:52;;;;;;;8.95;6.07;;;15.00;55.60;;;;;;5032183;28;20069;-51
2022/05/05 02:48:19;;;;;;;9.13;5.43;;;14.90;55.70;;;;;;5026828;28;20456;-47
2022/05/05 02:50:50;;;;;;;9.00;5.60;;;14.90;55.70;;;;;;5032510;28;20124;-48
2022/05/05 02:56:02;;;;;;;11.80;6.15;;;14.80;55.70;;;;;;5032345;28;20048;-52
2022/05/05 02:58:34;;;;;;;10.30;6.18;;;14.70;55.70;;;;;;5033498;28;20486;-51
2022/05/05 03:01:03;;;;;;;7.28;5.55;;;14.70;55.70;;;;;;5034005;28;20037;-51
2022/05/05 03:03:30;;;;;;;7.22;6.30;;;14.60;55.80;;;;;;5040252;28;20153;-51
2022/05/05 03:05:59;;;;;;;7.65;5.22;;;14.60;55.90;;;;;;5031135;28;20069;-50
2022/05/05 03:08:26;;;;;;;8.10;5.90;;;14.50;56.00;;;;;;5031856;28;20041;-51
2022/05/05 03:10:52;;;;;;;12.10;6.45;;;14.50;56.10;;;;;;5032755;28;20409;-51
2022/05/05 03:13:25;;;;;;;9.10;6.60;;;14.50;56.20;;;;;;5030557;28;20098;-49
2022/05/05 03:15:54;;;;;;;8.93;5.88;;;14.40;56.10;;;;;;5028775;28;20063;-48
2022/05/05 03:18:23;;;;;;;9.27;6.50;;;14.40;56.30;;;;;;5039614;28;20037;-52
2022/05/05 03:20:50;;;;;;;10.43;5.95;;;14.40;56.40;;;;;;5032232;28;20072;-49
2022/05/05 03:23:22;;;;;;;13.95;6.97;;;14.40;56.60;;;;;;5031933;28;20041;-51
2022/05/05 03:25:51;;;;;;;10.38;6.80;;;14.40;56.60;;;;;;5028873;28;20148;-51
2022/05/05 03:28:20;;;;;;;9.48;6.20;;;14.30;56.60;;;;;;5018163;28;20111;-49
2022/05/05 03:30:50;;;;;;;10.05;6.80;;;14.30;56.70;;;;;;5031906;28;20076;-48
2022/05/05 03:33:17;;;;;;;8.70;6.07;;;14.30;56.70;;;;;;5028886;28;20615;-48
2022/05/05 03:35:49;;;;;;;8.73;6.15;;;14.30;56.80;;;;;;5031502;28;20107;-49
2022/05/05 03:38:18;;;;;;;8.52;6.05;;;14.30;57.00;;;;;;5009954;28;20046;-50
2022/05/05 03:40:45;;;;;;;9.88;6.05;;;14.30;57.10;;;;;;5031540;28;20095;-51
2022/05/05 03:43:12;;;;;;;8.75;6.63;;;14.30;57.10;;;;;;5032900;28;20041;-50
2022/05/05 03:45:41;;;;;;;10.73;7.03;;;14.30;57.30;;;;;;5034260;28;20519;-50
2022/05/05 03:48:09;;;;;;;11.05;6.93;;;14.30;57.30;;;;;;5031160;28;20156;-51
2022/05/05 03:50:36;;;;;;;8.20;6.45;;;14.30;57.40;;;;;;5029260;28;20048;-50
2022/05/05 03:53:06;;;;;;;11.10;6.55;;;14.30;57.50;;;;;;5036118;28;20042;-48
2022/05/05 03:55:33;;;;;;;9.10;6.50;;;14.30;57.70;;;;;;5039308;28;20037;-50
2022/05/05 03:58:00;;;;;;;7.10;6.07;;;14.30;57.50;;;;;;5031393;28;20037;-50
2022/05/05 04:00:28;;;;;;;8.75;6.82;;;14.30;57.50;;;;;;5031560;28;20072;-51
2022/05/05 04:05:44;;;;;;;10.52;7.25;;;14.40;57.50;;;;;;5041147;28;20041;-47
2022/05/05 04:08:11;;;;;;;9.60;6.72;;;14.30;57.40;;;;;;5030988;28;20468;-51
2022/05/05 04:10:40;;;;;;;9.88;7.00;;;14.30;57.40;;;;;;5028924;28;20091;-52
2022/05/05 04:13:10;;;;;;;9.20;5.95;;;14.30;57.40;;;;;;5013289;28;20037;-50
2022/05/05 04:15:36;;;;;;;8.85;6.10;;;14.30;57.40;;;;;;5034916;28;20041;-49
2022/05/05 04:18:06;;;;;;;10.07;7.18;;;14.30;57.40;;;;;;5035144;28;20069;-51
2022/05/05 04:20:33;;;;;;;10.02;6.78;;;14.30;57.40;;;;;;5043468;28;20045;-47
2022/05/05 04:23:04;;;;;;;10.32;7.22;;;14.20;57.40;;;;;;5037796;28;20037;-48
2022/05/05 04:25:50;;;;;;;9.00;6.45;;;14.30;57.40;;;;;;5038516;28;20120;-50
2022/05/05 04:28:23;;;;;;;11.07;7.50;;;14.20;57.20;;;;;;5038389;28;20041;-51
2022/05/05 04:30:57;;;;;;;9.80;6.78;;;14.20;57.30;;;;;;5032383;28;20404;-47
2022/05/05 04:33:24;;;;;;;10.95;6.95;;;14.20;57.30;;;;;;5032353;28;20064;-51
2022/05/05 04:35:58;;;;;;;9.35;7.03;;;14.10;57.30;;;;;;5022327;28;20087;-51
2022/05/05 04:38:27;;;;;;;7.40;6.18;;;14.10;57.40;;;;;;5037355;28;20033;-48
2022/05/05 04:40:54;;;;;;;11.23;6.85;;;14.10;57.40;;;;;;5029408;28;20087;-47
2022/05/05 04:43:23;;;;;;;7.97;6.25;;;14.10;57.50;;;;;;5041833;28;20156;-49
2022/05/05 04:45:50;;;;;;;9.23;7.50;;;14.10;57.70;;;;;;5035948;28;20033;-50
2022/05/05 04:48:19;;;;;;;10.50;6.38;;;14.10;57.60;;;;;;5035676;28;20122;-51
2022/05/05 04:50:46;;;;;;;9.70;6.55;;;14.00;57.60;;;;;;5035858;28;20041;-51
2022/05/05 04:53:14;;;;;;;8.85;6.82;;;14.00;57.60;;;;;;5034102;28;20084;-51
2022/05/05 04:55:45;;;;;;;10.05;6.32;;;14.00;57.80;;;;;;5042641;28;20071;-49
2022/05/05 04:58:12;;;;;;;10.30;7.07;;;14.00;57.90;;;;;;5039902;28;20429;-50
2022/05/05 05:00:39;;;;;;;9.45;6.97;;;14.00;58.00;;;;;;5036187;28;20097;-50
2022/05/05 05:03:32;;;;;;;10.48;6.82;;;14.00;58.00;;;;;;5041165;28;20060;-50
2022/05/05 05:06:05;;;;;;;11.35;6.90;;;14.00;58.80;;;;;;5025001;28;20551;-51
2022/05/05 05:08:32;;;;;;;10.15;6.65;;;14.00;58.30;;;;;;5024034;28;20113;-51
2022/05/05 05:10:59;;;;;;;9.85;6.32;;;14.00;58.40;;;;;;5043435;28;20568;-47
2022/05/05 05:13:26;;;;;;;10.40;6.80;;;14.00;58.60;;;;;;5035754;28;20049;-49
2022/05/05 05:15:57;;;;;;;11.05;7.88;;;14.10;58.80;;;;;;5041388;28;20405;-49
2022/05/05 05:18:26;;;;;;;13.05;8.02;;;14.10;58.80;;;;;;5027074;28;20069;-48
2022/05/05 05:21:03;;;;;;;;;;;14.10;59.10;;;;;;5036246;28;20095;-47
2022/05/05 05:23:33;;;;;;;12.15;7.25;;;14.30;59.00;;;;;;5030090;28;20351;-51
2022/05/05 05:26:01;;;;;;;11.20;8.27;;;14.30;58.30;;;;;;5027897;28;20699;-48
2022/05/05 05:28:28;;;;;;;14.45;8.82;;;14.40;58.60;;;;;;5021493;28;20041;-47
2022/05/05 05:30:55;;;;;;;12.63;8.35;;;14.40;58.30;;;;;;5027586;28;20755;-49
2022/05/05 05:33:21;;;;;;;13.10;9.15;;;14.50;58.30;;;;;;5027185;28;20048;-47
2022/05/05 05:35:51;;;;;;;12.65;9.27;;;14.60;58.30;;;;;;5018714;28;20090;-50
2022/05/05 05:38:24;;;;;;;13.98;9.80;;;14.60;58.00;;;;;;5035938;28;20095;-48
2022/05/05 05:40:51;;;;;;;19.45;10.20;;;14.70;57.90;;;;;;5027366;28;20033;-47
2022/05/05 05:43:26;;;;;;;16.70;9.85;;;14.80;57.70;;;;;;5027461;28;20049;-47
2022/05/05 05:45:56;;;;;;;14.60;9.32;;;14.90;57.40;;;;;;5021785;28;20037;-46
2022/05/05 05:48:23;;;;;;;16.92;10.02;;;15.00;57.40;;;;;;5036170;28;20075;-48
2022/05/05 05:50:50;;;;;;;16.20;10.65;;;15.10;57.50;;;;;;5025301;28;20448;-48
2022/05/05 05:53:16;;;;;;;15.93;10.38;;;15.10;57.50;;;;;;5028131;28;20103;-45
2022/05/05 05:55:50;;;;;;;15.32;10.27;;;15.20;57.30;;;;;;5024520;28;20045;-45
2022/05/05 05:58:17;;;;;;;18.40;11.00;;;15.40;57.20;;;;;;5032400;28;20041;-47
2022/05/05 06:00:58;;;;;;;14.20;9.85;;;15.40;57.10;;;;;;5027590;28;20042;-47
2022/05/05 06:06:21;;;;;;;17.50;11.23;;;15.60;56.60;;;;;;5028417;28;20095;-47
2022/05/05 06:08:48;;;;;;;15.85;10.40;;;15.70;56.50;;;;;;5031664;28;20044;-47
2022/05/05 06:11:22;;;;;;;18.73;12.30;;;15.80;56.20;;;;;;5029696;28;20065;-46
2022/05/05 06:13:49;;;;;;;14.73;9.93;;;15.90;56.10;;;;;;5027592;28;20068;-48
2022/05/05 06:16:16;;;;;;;16.08;11.25;;;15.90;55.60;;;;;;5029924;28;20496;-46
2022/05/05 06:18:47;;;;;;;18.63;10.85;;;16.00;55.30;;;;;;5039713;28;20061;-47
2022/05/05 06:21:14;;;;;;;16.42;10.77;;;16.00;55.20;;;;;;5023294;28;20045;-47
2022/05/05 06:23:41;;;;;;;15.32;10.55;;;16.10;55.20;;;;;;5031769;23;20045;-45
2022/05/05 06:26:07;;;;;;;14.68;9.50;;;16.20;55.00;;;;;;5018298;28;20041;-46
2022/05/05 06:28:36;;;;;;;15.43;10.25;;;16.20;54.90;;;;;;5000558;28;20137;-51
2022/05/05 06:31:04;;;;;;;16.65;9.63;;;16.30;54.80;;;;;;5009059;28;20080;-46
2022/05/05 06:33:33;;;;;;;13.93;10.13;;;16.30;54.70;;;;;;4998485;28;20042;-47
2022/05/05 06:36:00;;;;;;;16.10;10.80;;;16.40;54.70;;;;;;4996187;28;20100;-45
2022/05/05 06:38:27;;;;;;;15.80;10.27;;;16.50;54.60;;;;;;5009840;28;20506;-49
2022/05/05 06:41:00;;;;;;;15.70;9.88;;;16.50;54.70;;;;;;5002337;28;20759;-46
2022/05/05 06:43:29;;;;;;;16.15;10.02;;;16.60;54.70;;;;;;4993562;28;20109;-50
2022/05/05 06:45:58;;;;;;;16.33;10.00;;;16.70;54.60;;;;;;5002779;28;20061;-45
2022/05/05 06:48:27;;;;;;;14.50;9.73;;;16.80;54.40;;;;;;5009112;28;20084;-48
2022/05/05 06:50:56;;;;;;;14.02;9.82;;;16.80;54.20;;;;;;5007203;28;20595;-49
2022/05/05 06:53:25;;;;;;;15.38;9.68;;;16.90;53.90;;;;;;4994893;28;20050;-45
2022/05/05 06:55:55;;;;;;;11.88;8.30;;;17.00;53.10;;;;;;5001690;28;20501;-49
2022/05/05 06:58:25;;;;;;;10.40;7.80;;;17.00;52.70;;;;;;4971235;28;20046;-46
2022/05/05 07:06:49;;;;;;;14.80;9.23;;;17.10;52.20;;;;;;4956875;28;20074;-47
2022/05/05 07:12:02;;;;;;;12.38;8.15;;;17.20;51.80;;;;;;5002323;28;20072;-48
2022/05/05 07:14:28;;;;;;;18.05;8.80;;;17.30;52.00;;;;;;5010678;28;20064;-48
2022/05/05 07:16:55;;;;;;;15.02;8.95;;;17.30;51.90;;;;;;4997161;28;20645;-47
2022/05/05 07:19:30;;;;;;;11.35;8.60;;;17.40;51.80;;;;;;4992937;28;20073;-46
2022/05/05 07:21:59;;;;;;;15.50;9.23;;;17.40;51.40;;;;;;5004954;28;20046;-48
2022/05/05 07:24:25;;;;;;;15.65;8.82;;;17.50;51.40;;;;;;5011818;28;20049;-48
2022/05/05 07:26:59;;;;;;;11.35;8.00;;;17.50;50.90;;;;;;4997912;28;20069;-49
2022/05/05 07:29:26;;;;;;;13.27;8.68;;;17.60;50.70;;;;;;4983255;28;20108;-49
2022/05/05 07:31:53;;;;;;;13.35;8.25;;;17.60;50.50;;;;;;5000235;28;20045;-46
2022/05/05 07:34:22;;;;;;;18.10;8.82;;;17.70;50.30;;;;;;5011885;28;20513;-46
2022/05/05 07:36:53;;;;;;;11.38;7.40;;;17.70;50.70;;;;;;5011430;28;20089;-46
2022/05/05 07:39:20;;;;;;;12.75;7.35;;;17.70;50.00;;;;;;4998339;28;20046;-46
2022/05/05 07:41:58;;;;;;;13.60;7.38;;;17.80;49.80;;;;;;5007563;28;20069;-45
2022/05/05 07:44:34;;;;;;;;;;;;;;;;;;;;;
2022/05/05 07:47:02;;;;;;;11.32;7.53;;;17.90;50.10;;;;;;4995777;28;20042;-52
2022/05/05 07:49:30;;;;;;;7.78;6.45;;;17.90;48.60;;;;;;5000396;28;20121;-47
2022/05/05 07:51:57;;;;;;;12.88;7.40;;;17.90;48.50;;;;;;5011022;28;20425;-49
2022/05/05 07:54:42;;;;;;;12.63;7.25;;;18.00;48.50;;;;;;5010776;28;20045;-45
2022/05/05 07:57:17;;;;;;;11.18;8.02;;;18.00;48.80;;;;;;4985569;28;20534;-46
2022/05/05 07:59:47;;;;;;;14.48;7.90;;;18.00;49.00;;;;;;4986425;28;20042;-50
2022/05/05 08:02:22;;;;;;;12.77;7.78;;;18.10;48.90;;;;;;5006134;28;20045;-46
2022/05/05 08:04:56;;;;;;;14.20;8.25;;;18.10;49.00;;;;;;5010058;28;20124;-50
2022/05/05 08:07:23;;;;;;;12.30;8.05;;;18.10;49.20;;;;;;5001519;28;20038;-48
2022/05/05 08:09:50;;;;;;;11.38;7.60;;;18.20;49.50;;;;;;5007092;28;20045;-46
2022/05/05 08:12:38;;;;;;;10.30;7.40;;;18.20;49.30;;;;;;4992527;28;20117;-49
2022/05/05 08:15:06;;;;;;;11.88;7.75;;;18.30;48.90;;;;;;4991957;28;20054;-46
2022/05/05 08:17:35;;;;;;;11.27;6.70;;;18.40;48.70;;;;;;4996719;28;20046;-47
2022/05/05 08:20:11;;;;;;;13.02;7.70;;;18.40;47.50;;;;;;4984306;28;20047;-46
2022/05/05 08:22:37;;;;;;;12.45;7.47;;;18.50;47.00;;;;;;4980184;28;20077;-46
2022/05/05 08:30:36;;;;;;;11.45;7.03;;;18.70;46.90;;;;;;4989563;28;20054;-48
2022/05/05 08:33:06;;;;;;;10.95;7.22;;;18.70;46.30;;;;;;4991973;28;20125;-52
2022/05/05 08:35:32;;;;;;;11.23;7.00;;;18.80;46.00;;;;;;4995102;28;20438;-46
2022/05/05 08:37:59;;;;;;;13.07;7.32;;;18.90;46.40;;;;;;5002472;28;20084;-46
2022/05/05 08:40:27;;;;;;;12.35;8.05;;;18.90;46.30;;;;;;4984371;28;20078;-48
2022/05/05 08:42:54;;;;;;;12.55;6.97;;;19.00;45.70;;;;;;4983084;28;20039;-46
2022/05/05 08:45:21;;;;;;;11.80;7.35;;;19.10;45.60;;;;;;4985873;28;20070;-46
2022/05/05 08:47:50;;;;;;;14.75;7.90;;;19.10;45.00;;;;;;4987001;28;20498;-48
2022/05/05 08:50:22;;;;;;;13.57;7.22;;;19.20;45.10;;;;;;4982517;28;20461;-46
2022/05/05 08:52:51;;;;;;;11.85;6.78;;;19.20;45.10;;;;;;4980319;28;20040;-46
2022/05/05 08:55:22;;;;;;;10.95;6.90;;;19.30;44.20;;;;;;4985828;28;20113;-49
2022/05/05 08:58:02;;;;;;;12.85;8.77;;;19.30;43.90;;;;;;5010010;28;20052;-46
2022/05/05 09:00:33;;;;;;;13.52;8.77;;;19.30;44.10;;;;;;5008794;28;20038;-50
2022/05/05 09:03:00;;;;;;;17.02;8.52;;;19.30;43.90;;;;;;5002897;28;20101;-45
2022/05/05 09:05:45;;;;;;;11.30;6.90;;;19.40;44.60;;;;;;5007079;28;20045;-49
2022/05/05 09:08:26;;;;;;;12.20;7.15;;;19.40;44.10;;;;;;4997213;28;20042;-48
2022/05/05 09:11:01;;;;;;;;;;;19.40;44.00;;;;;;4970746;28;20790;-46
2022/05/05 09:13:30;;;;;;;12.85;7.60;;;19.40;44.30;;;;;;4994554;28;19925;-50
2022/05/05 09:16:03;;;;;;;12.93;6.97;;;19.40;44.00;;;;;;5003363;28;20041;-48
2022/05/05 09:18:38;;;;;;;11.85;7.28;;;19.40;43.70;;;;;;5011467;28;20453;-46
2022/05/05 09:21:08;;;;;;;10.73;6.53;;;19.40;43.60;;;;;;4995440;28;20077;-46
2022/05/05 09:26:32;;;;;;;;;;;19.30;43.10;;;;;;5002045;28;20038;-46
2022/05/05 09:29:17;;;;;;;10.35;6.43;;;19.30;43.90;;;;;;4973825;28;19984;-49
2022/05/05 09:31:50;;;;;;;11.27;7.32;;;19.30;44.10;;;;;;4991060;28;20069;-46
2022/05/05 09:34:18;;;;;;;15.43;7.63;;;19.30;44.30;;;;;;5001620;28;20092;-50
2022/05/05 09:36:49;;;;;;;12.40;7.85;;;19.20;45.60;;;;;;5006697;28;20073;-49
2022/05/05 09:39:16;;;;;;;14.15;8.25;;;19.20;44.20;;;;;;5006789;28;20219;-47
2022/05/05 09:41:45;;;;;;;14.23;7.70;;;19.20;44.40;;;;;;5001599;28;20041;-49
2022/05/05 09:44:22;;;;;;;12.13;7.82;;;19.20;45.10;;;;;;5010303;28;20120;-47
2022/05/05 09:46:49;;;;;;;15.57;9.02;;;19.20;44.50;;;;;;5009303;28;20073;-47
2022/05/05 09:49:20;;;;;;;13.70;7.85;;;19.20;44.30;;;;;;4982955;28;20713;-47
2022/05/05 09:57:41;;;;;;;14.15;7.95;;;19.20;45.10;;;;;;4996793;28;20038;-46
2022/05/05 10:00:25;;;;;;;12.45;7.75;;;19.20;45.40;;;;;;4999763;28;20081;-45
2022/05/05 10:05:56;;;;;;;10.20;7.30;;;19.20;44.70;;;;;;4968941;28;20066;-48
2022/05/05 10:08:30;;;;;;;11.23;7.05;;;19.20;44.90;;;;;;4983905;28;20046;-51
2022/05/05 10:10:58;;;;;;;12.55;7.85;;;19.20;45.90;;;;;;4999640;28;20124;-48
2022/05/05 10:13:28;;;;;;;10.65;7.28;;;19.30;45.20;;;;;;5007111;28;20046;-46
2022/05/05 10:15:55;;;;;;;11.95;7.93;;;19.30;44.60;;;;;;5000673;28;20066;-49
2022/05/05 10:18:27;;;;;;;12.57;6.80;;;19.40;44.80;;;;;;4997540;28;20546;-47
2022/05/05 10:20:57;;;;;;;11.82;7.03;;;19.40;44.30;;;;;;5001741;28;20072;-48
2022/05/05 10:23:44;;;;;;;11.30;7.18;;;19.40;44.40;;;;;;4989164;28;20053;-49
2022/05/05 10:26:14;;;;;;;9.70;6.97;;;19.50;45.20;;;;;;4987210;28;20057;-47
2022/05/05 10:28:44;;;;;;;11.90;6.90;;;19.50;44.90;;;;;;4991727;28;20583;-49
2022/05/05 10:31:31;;;;;;;9.48;6.95;;;19.60;45.30;;;;;;5004853;28;20482;-46
2022/05/05 10:34:07;;;;;;;12.55;6.78;;;19.80;44.60;;;;;;5008043;28;20599;-48
2022/05/05 10:36:35;;;;;;;12.50;7.57;;;19.80;44.80;;;;;;4998635;28;20045;-47
2022/05/05 10:39:23;;;;;;;10.35;7.53;;;19.90;44.70;;;;;;4997475;28;20099;-51
2022/05/05 10:42:21;;;;;;;12.68;7.05;;;20.10;44.00;;;;;;4976993;28;20142;-46
2022/05/05 10:45:10;;;;;;;10.52;7.30;;;20.20;43.90;;;;;;4977849;28;21198;-48
2022/05/05 10:47:52;;;;;;;10.63;7.38;;;20.30;43.40;;;;;;5001095;28;20039;-47
2022/05/05 10:50:36;;;;;;;10.60;7.40;;;20.50;44.10;;;;;;5010210;28;20049;-47
2022/05/05 10:53:11;;;;;;;9.88;6.97;;;20.60;43.30;;;;;;4994114;28;20046;-46
2022/05/05 10:55:48;;;;;;;9.73;7.55;;;20.70;44.10;;;;;;4989422;28;20034;-46
2022/05/05 10:59:02;;;;;;;9.43;7.57;;;21.00;43.10;;;;;;4982915;28;20050;-47
2022/05/05 11:01:42;;;;;;;10.45;7.88;;;21.20;43.10;;;;;;4981790;28;20053;-47
2022/05/05 11:04:12;;;;;;;10.20;7.72;;;21.40;43.50;;;;;;4986772;28;21040;-51
2022/05/05 11:06:49;;;;;;;12.50;7.90;;;21.60;42.80;;;;;;4981476;28;20453;-48
2022/05/05 11:09:35;;;;;;;12.48;8.15;;;21.70;42.70;;;;;;4978030;28;20072;-47
2022/05/05 11:12:21;;;;;;;10.55;7.63;;;21.90;42.10;;;;;;4984551;28;20625;-49
2022/05/05 11:23:47;;;;;;;10.77;7.07;;;22.10;41.40;;;;;;4985287;28;20049;-46
2022/05/05 11:26:20;;;;;;;8.70;6.55;;;22.00;40.90;;;;;;4983953;28;20073;-48
2022/05/05 11:28:49;;;;;;;8.57;5.93;;;22.10;41.00;;;;;;4982690;28;20043;-49
2022/05/05 11:31:19;;;;;;;6.93;5.75;;;22.20;41.60;;;;;;4973324;28;20074;-46
2022/05/05 11:33:54;;;;;;;8.07;5.90;;;22.20;42.00;;;;;;4984059;28;20125;-47
2022/05/05 11:36:37;;;;;;;9.52;6.13;;;22.40;41.80;;;;;;4989912;28;20076;-49
2022/05/05 11:39:09;;;;;;;9.23;6.75;;;22.50;41.00;;;;;;4980832;28;20529;-47
2022/05/05 11:41:39;;;;;;;10.73;6.97;;;22.70;41.10;;;;;;4981469;28;20065;-46
2022/05/05 11:44:15;;;;;;;11.98;7.25;;;22.80;40.30;;;;;;4985676;28;20080;-48
2022/05/05 11:46:44;;;;;;;10.10;7.60;;;22.80;40.80;;;;;;4990197;28;20179;-49
2022/05/05 11:49:12;;;;;;;16.50;9.02;;;22.80;41.00;;;;;;4982327;28;20574;-49
2022/05/05 11:51:40;;;;;;;12.13;7.53;;;22.80;40.50;;;;;;4986391;28;20494;-47
2022/05/05 11:54:14;;;;;;;13.27;7.45;;;22.80;40.70;;;;;;4985925;28;20545;-46
2022/05/05 11:56:47;;;;;;;12.95;7.60;;;22.80;39.50;;;;;;4991526;28;20041;-48
2022/05/05 12:02:06;;;;;;;7.53;5.97;;;22.70;40.20;;;;;;4990755;28;20094;-48
2022/05/05 12:04:37;;;;;;;8.70;6.25;;;22.80;39.60;;;;;;4984669;28;20433;-49
2022/05/05 12:07:07;;;;;;;9.00;5.72;;;22.80;39.40;;;;;;5007059;28;20046;-47
2022/05/05 12:09:38;;;;;;;7.40;5.95;;;22.90;40.40;;;;;;5008128;28;20033;-49
2022/05/05 12:12:11;;;;;;;7.05;5.95;;;23.10;39.80;;;;;;4994472;28;20097;-49
2022/05/05 12:14:42;;;;;;;8.75;6.50;;;23.20;39.40;;;;;;4982139;28;20506;-50
2022/05/05 12:17:16;;;;;;;11.35;8.07;;;23.30;40.00;;;;;;4984403;28;20042;-46
2022/05/05 12:19:55;;;;;;;11.30;7.95;;;23.40;39.50;;;;;;4988680;28;20042;-48
2022/05/05 12:22:32;;;;;;;10.95;7.80;;;23.50;39.00;;;;;;4998329;28;20046;-47
2022/05/05 12:25:15;;;;;;;12.00;7.45;;;23.60;38.70;;;;;;5005670;28;20049;-48
2022/05/05 12:28:00;;;;;;;10.95;7.38;;;23.70;39.00;;;;;;5012220;28;20107;-48
2022/05/05 12:30:41;;;;;;;10.93;7.75;;;23.70;38.10;;;;;;4989282;28;20046;-46
2022/05/05 12:33:17;;;;;;;12.55;8.10;;;23.80;38.70;;;;;;4984358;28;20098;-46
2022/05/05 12:35:49;;;;;;;10.43;7.80;;;23.90;38.80;;;;;;4981623;28;20062;-46
2022/05/05 12:38:17;;;;;;;12.25;8.10;;;24.00;38.70;;;;;;4970548;28;20050;-46
2022/05/05 12:41:04;;;;;;;11.35;7.45;;;24.10;38.00;;;;;;4969017;28;20042;-48
2022/05/05 12:43:34;;;;;;;8.50;6.68;;;24.20;38.50;;;;;;4984013;28;20097;-46
2022/05/05 12:46:04;;;;;;;9.35;7.57;;;24.30;38.70;;;;;;4980141;28;20094;-46
2022/05/05 12:48:37;;;;;;;11.05;7.80;;;24.30;39.10;;;;;;4986451;28;20148;-47
2022/05/05 12:51:17;;;;;;;9.25;7.60;;;24.40;39.00;;;;;;4984029;28;20043;-49
2022/05/05 12:59:39;;;;;;;10.70;7.32;;;24.60;37.10;;;;;;4990716;28;20487;-46
2022/05/05 13:02:06;;;;;;;10.63;7.10;;;24.60;37.60;;;;;;5011204;28;20449;-48
2022/05/05 13:04:33;;;;;;;11.18;8.38;;;24.60;37.70;;;;;;5007818;28;20180;-47
2022/05/05 13:07:00;;;;;;;11.15;9.02;;;24.70;37.60;;;;;;4981481;28;20062;-48
2022/05/05 13:09:27;;;;;;;13.48;7.80;;;24.70;38.50;;;;;;4990160;28;20046;-46
2022/05/05 13:11:58;;;;;;;12.77;8.02;;;24.70;37.90;;;;;;5009688;28;20041;-46
2022/05/05 13:14:31;;;;;;;9.00;7.53;;;24.60;36.90;;;;;;4977967;28;20056;-43
2022/05/05 13:17:02;;;;;;;9.00;6.93;;;24.60;37.40;;;;;;4996355;28;20045;-46
2022/05/05 13:19:42;;;;;;;8.88;7.50;;;24.50;37.70;;;;;;4998469;28;20064;-46
2022/05/05 13:22:10;;;;;;;10.73;7.68;;;24.40;37.80;;;;;;4995791;28;20053;-47
2022/05/05 13:24:42;;;;;;;11.32;7.68;;;24.30;37.50;;;;;;4985751;28;20043;-47
2022/05/05 13:27:09;;;;;;;9.80;6.68;;;24.30;38.50;;;;;;4998575;28;20097;-45
2022/05/05 13:29:36;;;;;;;12.77;7.45;;;24.20;37.60;;;;;;4976830;28;20497;-44
2022/05/05 13:32:03;;;;;;;10.55;7.55;;;24.10;37.00;;;;;;5017740;23;20057;-45
2022/05/05 13:34:32;;;;;;;10.18;7.47;;;24.10;37.00;;;;;;4989763;28;20497;-45
2022/05/05 13:37:00;;;;;;;10.60;8.13;;;24.10;37.20;;;;;;5004893;28;20040;-49
2022/05/05 13:39:29;;;;;;;10.27;7.05;;;24.10;37.90;;;;;;4994040;28;20105;-45
2022/05/05 13:42:01;;;;;;;8.48;6.88;;;24.00;38.60;;;;;;5005708;28;20088;-47
2022/05/05 13:44:30;;;;;;;14.52;8.95;;;24.00;38.80;;;;;;5009924;28;20042;-46
2022/05/05 13:47:02;;;;;;;10.57;8.60;;;23.90;38.40;;;;;;5018777;28;20040;-49
2022/05/05 13:49:29;;;;;;;10.32;8.45;;;23.80;38.30;;;;;;5011335;28;20124;-48
2022/05/05 13:51:56;;;;;;;12.02;8.43;;;23.80;38.20;;;;;;5021840;28;20045;-48
2022/05/05 13:54:36;;;;;;;12.13;8.25;;;23.60;38.20;;;;;;5011373;28;20049;-47
2022/05/05 13:57:08;;;;;;;12.23;8.85;;;23.50;38.00;;;;;;5018598;28;20069;-48
2022/05/05 13:59:37;;;;;;;11.00;8.70;;;23.40;38.70;;;;;;5008562;28;20041;-48
2022/05/05 14:02:24;;;;;;;11.95;10.00;;;23.30;39.00;;;;;;5012186;28;20645;-50